This is the latest recevied weather packets stored in our database for station/object DH9SB-6. If no packets are shown the sender has not sent any weather packets the latest 10 day(s).
| Time | Temp. | Humidity | Pressure | Rain* | Wind** | Luminosity | Snow |
|---|---|---|---|---|---|---|---|
| 1777450960 | 17.22° C | 32% | - | 0 mm | - | - | - |
| 1777450383 | 17.78° C | 30% | - | 0 mm | - | - | - |
| 1777449759 | 16.67° C | 32% | - | 0 mm | - | - | - |
| 1777449189 | 16.11° C | 32% | - | 0 mm | - | - | - |
| 1777448559 | 16.11° C | 32% | - | 0 mm | - | - | - |
| 1777448032 | 15.56° C | 33% | - | 0 mm | - | - | - |
| 1777447362 | 15° C | 33% | - | 0 mm | - | - | - |
| 1777446785 | 14.44° C | 34% | - | 0 mm | - | - | - |
| 1777446447 | 14.44° C | 34% | - | 0 mm | - | - | - |
| 1777445872 | 13.33° C | 35% | - | 0 mm | - | - | - |
| 1777445248 | 12.22° C | 40% | - | 0 mm | - | - | - |
| 1777444672 | 11.67° C | 40% | - | 0 mm | - | - | - |
| 1777444051 | 11.67° C | 41% | - | 0 mm | - | - | - |
| 1777443471 | 11.11° C | 41% | - | 0 mm | - | - | - |
| 1777442848 | 11.11° C | 42% | - | 0 mm | - | - | - |
| 1777442273 | 11.11° C | 43% | - | 0 mm | - | - | - |
| 1777441648 | 10° C | 44% | - | 0 mm | - | - | - |
| 1777441072 | 10° C | 43% | - | 0 mm | - | - | - |
| 1777440450 | 9.44° C | 43% | - | 0 mm | - | - | - |
| 1777439873 | 9.44° C | 43% | - | 0 mm | - | - | - |
| 1777439248 | 8.89° C | 43% | - | 0 mm | - | - | - |
| 1777438673 | 8.89° C | 44% | - | 0 mm | - | - | - |
| 1777438047 | 8.89° C | 43% | - | 0 mm | - | - | - |
| 1777437482 | 8.33° C | 43% | - | 0 mm | - | - | - |
| 1777436849 | 8.33° C | 43% | - | 0 mm | - | - | - |
* Rain latest hour (hover to see other rain measurements)
** Current wind speed in m/s (hover to see current wind gust speed)